Datum - Zeit
Döttingen
TemperaturTaupunktFeuchteSolar Wind aus
Richtung
Windböenaus
Richtung
Luftdruck
(QFF)
RegenRegen
Stärke
27.11.2021 - 00.00Uhr3.1 °C1.1 °C87 %0.0 W/m²3.5 km/hSüden8.3 km/hSüd-SW994.2 hPa0.0 mm0.0 mm/h
27.11.2021 - 00.05Uhr3.1 °C1.1 °C87 %0.0 W/m²1.9 km/hWest-NW4.0 km/hWest-NW994.2 hPa0.0 mm0.0 mm/h
27.11.2021 - 00.10Uhr3.0 °C1.0 °C87 %0.0 W/m²1.6 km/hWest-NW5.8 km/hWest-NW994.1 hPa0.0 mm0.0 mm/h
27.11.2021 - 00.15Uhr3.0 °C1.1 °C87 %0.0 W/m²4.7 km/hSüden10.1 km/hSüd-SO994.0 hPa0.0 mm0.0 mm/h
27.11.2021 - 00.20Uhr3.2 °C1.1 °C86 %0.0 W/m²7.4 km/hSüd-SW18.0 km/hSüd-SO993.9 hPa0.0 mm0.0 mm/h
27.11.2021 - 00.25Uhr3.3 °C1.2 °C86 %0.0 W/m²6.6 km/hSüdosten12.2 km/hSüdosten993.9 hPa0.0 mm0.0 mm/h
27.11.2021 - 00.30Uhr3.3 °C1.2 °C86 %0.0 W/m²5.0 km/hSüd-SW16.2 km/hSüd-SO993.8 hPa0.0 mm0.0 mm/h
27.11.2021 - 00.35Uhr3.3 °C1.2 °C86 %0.0 W/m²5.3 km/hSüd-SO12.2 km/hSüd-SO993.7 hPa0.0 mm0.0 mm/h
27.11.2021 - 00.40Uhr3.3 °C1.1 °C85 %0.0 W/m²3.8 km/hSüd-SO16.2 km/hSüd-SO993.6 hPa0.0 mm0.0 mm/h
27.11.2021 - 00.45Uhr3.3 °C1.0 °C85 %0.0 W/m²5.4 km/hSüd-SO18.0 km/hSüden993.5 hPa0.0 mm0.0 mm/h
27.11.2021 - 00.50Uhr3.3 °C1.0 °C85 %0.0 W/m²4.0 km/hWest-SW14.0 km/hWest-SW993.4 hPa0.0 mm0.0 mm/h
27.11.2021 - 00.55Uhr3.3 °C1.0 °C85 %0.0 W/m²4.7 km/hWest-SW12.2 km/hWest-SW993.3 hPa0.0 mm0.0 mm/h
27.11.2021 - 01.00Uhr3.3 °C1.0 °C85 %0.0 W/m²4.3 km/hWest-SW14.0 km/hSüd-SO993.3 hPa0.0 mm0.0 mm/h
27.11.2021 - 01.05Uhr3.3 °C1.1 °C85 %0.0 W/m²6.6 km/hSüdwesten16.2 km/hWest-SW993.2 hPa0.0 mm0.0 mm/h
27.11.2021 - 01.10Uhr3.3 °C1.0 °C85 %0.0 W/m²3.8 km/hSüdwesten8.3 km/hWest-SW993.0 hPa0.0 mm0.0 mm/h
27.11.2021 - 01.15Uhr3.3 °C1.0 °C85 %0.0 W/m²2.4 km/hSüdwesten8.3 km/hSüdwesten993.0 hPa0.0 mm0.0 mm/h
27.11.2021 - 01.20Uhr3.2 °C1.1 °C86 %0.0 W/m²3.9 km/hWest-SW12.2 km/hSüdwesten993.0 hPa0.0 mm0.0 mm/h
27.11.2021 - 01.25Uhr3.2 °C1.1 °C86 %0.0 W/m²2.5 km/hWest-SW8.3 km/hWest-SW992.9 hPa0.0 mm0.0 mm/h
27.11.2021 - 01.30Uhr3.2 °C1.1 °C86 %0.0 W/m²2.1 km/hWest-SW5.8 km/hWest-SW992.9 hPa0.0 mm0.0 mm/h
27.11.2021 - 01.35Uhr3.2 °C1.1 °C86 %0.0 W/m²2.4 km/hSüden8.3 km/hSüden992.8 hPa0.0 mm0.0 mm/h
27.11.2021 - 01.40Uhr3.2 °C1.1 °C86 %0.0 W/m²4.5 km/hWest-SW14.0 km/hWest-SW992.7 hPa0.0 mm0.0 mm/h
27.11.2021 - 01.45Uhr3.3 °C1.1 °C86 %0.0 W/m²3.6 km/hWest-SW8.3 km/hWest-SW992.6 hPa0.0 mm0.0 mm/h
27.11.2021 - 01.50Uhr3.3 °C1.1 °C86 %0.0 W/m²3.1 km/hSüdwesten10.1 km/hSüdwesten992.6 hPa0.0 mm0.0 mm/h
27.11.2021 - 01.55Uhr3.2 °C1.1 °C86 %0.0 W/m²3.9 km/hSüdwesten10.1 km/hSüdwesten992.5 hPa0.0 mm0.0 mm/h
27.11.2021 - 02.00Uhr3.2 °C1.1 °C86 %0.0 W/m²4.6 km/hSüdwesten12.2 km/hSüdwesten992.4 hPa0.0 mm0.0 mm/h
27.11.2021 - 02.05Uhr3.2 °C1.1 °C86 %0.0 W/m²4.5 km/hSüd-SW8.3 km/hSüden992.2 hPa0.0 mm0.0 mm/h
27.11.2021 - 02.10Uhr3.2 °C1.1 °C86 %0.0 W/m²6.3 km/hSüd-SW12.2 km/hSüden992.0 hPa0.0 mm0.0 mm/h
27.11.2021 - 02.15Uhr3.2 °C1.1 °C86 %0.0 W/m²2.8 km/hSüd-SW8.3 km/hSüd-SW992.0 hPa0.0 mm0.0 mm/h
27.11.2021 - 02.20Uhr3.1 °C1.0 °C86 %0.0 W/m²4.3 km/hSüd-SO12.2 km/hSüd-SO992.0 hPa0.0 mm0.0 mm/h
27.11.2021 - 02.25Uhr3.1 °C1.1 °C86 %0.0 W/m²5.7 km/hSüden10.1 km/hSüd-SO992.0 hPa0.0 mm0.0 mm/h
27.11.2021 - 02.30Uhr3.1 °C1.1 °C86 %0.0 W/m²5.8 km/hSüd-SW12.2 km/hSüdosten991.9 hPa0.0 mm0.0 mm/h
27.11.2021 - 02.35Uhr3.2 °C0.9 °C85 %0.0 W/m²5.8 km/hSüd-SO12.2 km/hOst-SO991.8 hPa0.0 mm0.0 mm/h
27.11.2021 - 02.40Uhr3.2 °C0.9 °C85 %0.0 W/m²3.9 km/hSüden12.2 km/hSüden991.8 hPa0.0 mm0.0 mm/h
27.11.2021 - 02.45Uhr3.3 °C0.9 °C85 %0.0 W/m²4.3 km/hSüdosten12.2 km/hSüd-SO991.8 hPa0.0 mm0.0 mm/h
27.11.2021 - 02.50Uhr3.3 °C0.9 °C84 %0.0 W/m²5.9 km/hSüd-SO12.2 km/hSüdosten991.7 hPa0.0 mm0.0 mm/h
27.11.2021 - 02.55Uhr3.4 °C1.0 °C84 %0.0 W/m²7.5 km/hSüd-SO16.2 km/hSüd-SO991.7 hPa0.0 mm0.0 mm/h
27.11.2021 - 03.00Uhr3.4 °C0.8 °C83 %0.0 W/m²6.3 km/hSüd-SO12.2 km/hSüd-SO991.7 hPa0.0 mm0.0 mm/h
27.11.2021 - 03.05Uhr3.4 °C1.0 °C84 %0.0 W/m²2.8 km/hSüdwesten8.3 km/hSüdwesten991.6 hPa0.0 mm0.0 mm/h
27.11.2021 - 03.10Uhr3.4 °C0.9 °C83 %0.0 W/m²4.1 km/hSüdwesten12.2 km/hSüd-SO991.5 hPa0.0 mm0.0 mm/h
27.11.2021 - 03.15Uhr3.5 °C0.9 °C83 %0.0 W/m²5.6 km/hSüdosten10.1 km/hSüdosten991.4 hPa0.0 mm0.0 mm/h
27.11.2021 - 03.20Uhr3.4 °C0.8 °C83 %0.0 W/m²7.9 km/hSüdosten14.0 km/hSüd-SO991.4 hPa0.0 mm0.0 mm/h
27.11.2021 - 03.25Uhr3.4 °C0.8 °C83 %0.0 W/m²8.4 km/hSüd-SO18.0 km/hSüdosten991.3 hPa0.0 mm0.0 mm/h
27.11.2021 - 03.30Uhr3.5 °C0.9 °C83 %0.0 W/m²5.6 km/hSüd-SO10.1 km/hSüd-SO991.3 hPa0.0 mm0.0 mm/h
27.11.2021 - 03.35Uhr3.4 °C0.8 °C83 %0.0 W/m²4.5 km/hSüd-SO8.3 km/hSüd-SO991.3 hPa0.0 mm0.0 mm/h
27.11.2021 - 03.40Uhr3.4 °C1.0 °C84 %0.0 W/m²2.3 km/hSüd-SO8.3 km/hSüd-SO991.3 hPa0.0 mm0.0 mm/h
27.11.2021 - 03.45Uhr3.4 °C1.0 °C84 %0.0 W/m²1.5 km/hSüd-SO4.0 km/hSüd-SO991.2 hPa0.2 mm0.0 mm/h
27.11.2021 - 03.50Uhr3.3 °C1.0 °C84 %0.0 W/m²1.6 km/hSüd-SO8.3 km/hSüd-SO991.3 hPa0.0 mm0.0 mm/h
27.11.2021 - 03.55Uhr3.0 °C0.9 °C86 %0.0 W/m²0.5 km/hSüd-SO1.8 km/hSüd-SO991.2 hPa0.0 mm0.0 mm/h
27.11.2021 - 04.00Uhr2.9 °C1.0 °C87 %0.0 W/m²0.6 km/hSüd-SO1.8 km/hSüd-SO991.2 hPa0.0 mm0.0 mm/h
27.11.2021 - 04.05Uhr2.9 °C1.1 °C88 %0.0 W/m²0.0 km/hSüd-SO0.0 km/hNorden991.2 hPa0.0 mm0.0 mm/h
27.11.2021 - 04.10Uhr2.8 °C1.0 °C88 %0.0 W/m²0.6 km/hSüd-SO1.8 km/hSüd-SO991.1 hPa0.0 mm0.0 mm/h
27.11.2021 - 04.15Uhr2.7 °C1.1 °C89 %0.0 W/m²1.1 km/hSüd-SO4.0 km/hSüd-SO991.1 hPa0.0 mm0.0 mm/h
27.11.2021 - 04.20Uhr2.6 °C1.0 °C89 %0.0 W/m²3.0 km/hSüd-SO8.3 km/hSüd-SO991.0 hPa0.0 mm0.0 mm/h
27.11.2021 - 04.25Uhr2.6 °C1.0 °C89 %0.0 W/m²4.6 km/hSüd-SO8.3 km/hSüd-SO991.0 hPa0.0 mm0.0 mm/h
27.11.2021 - 04.30Uhr2.5 °C0.9 °C89 %0.0 W/m²2.5 km/hSüd-SO8.3 km/hSüd-SO991.0 hPa0.0 mm0.0 mm/h
27.11.2021 - 04.35Uhr2.4 °C0.8 °C89 %0.0 W/m²0.0 km/hSüd-SO0.0 km/hNorden990.9 hPa0.0 mm0.0 mm/h
27.11.2021 - 04.40Uhr2.4 °C0.8 °C89 %0.0 W/m²3.4 km/hSüd-SO8.3 km/hSüd-SO990.8 hPa0.0 mm0.0 mm/h
27.11.2021 - 04.45Uhr2.4 °C0.8 °C89 %0.0 W/m²0.5 km/hSüd-SO1.8 km/hSüd-SO990.9 hPa0.0 mm0.0 mm/h
27.11.2021 - 04.50Uhr2.4 °C0.9 °C90 %0.0 W/m²0.6 km/hSüd-SO1.8 km/hSüd-SO990.9 hPa0.0 mm0.0 mm/h
27.11.2021 - 04.55Uhr2.4 °C0.9 °C90 %0.0 W/m²1.2 km/hSüd-SO4.0 km/hSüd-SO991.0 hPa0.0 mm0.0 mm/h
27.11.2021 - 05.00Uhr2.4 °C0.8 °C90 %0.0 W/m²4.5 km/hOst-SO8.3 km/hOst-SO991.0 hPa0.0 mm0.0 mm/h
27.11.2021 - 05.05Uhr2.3 °C0.8 °C90 %0.0 W/m²0.7 km/hOst-SO1.8 km/hOst-SO991.1 hPa0.0 mm0.0 mm/h
27.11.2021 - 05.10Uhr2.4 °C0.9 °C90 %0.0 W/m²3.2 km/hOst-SO8.3 km/hOst-SO991.1 hPa0.0 mm0.0 mm/h
27.11.2021 - 05.15Uhr2.3 °C0.7 °C89 %0.0 W/m²1.1 km/hOst-SO4.0 km/hOst-SO991.1 hPa0.0 mm0.0 mm/h
27.11.2021 - 05.20Uhr2.3 °C0.7 °C89 %0.0 W/m²4.1 km/hSüdosten10.1 km/hSüdosten991.0 hPa0.0 mm0.0 mm/h
27.11.2021 - 05.25Uhr2.6 °C1.0 °C89 %0.0 W/m²2.9 km/hSüd-SW8.3 km/hSüd-SW991.1 hPa0.0 mm0.0 mm/h
27.11.2021 - 05.30Uhr2.8 °C1.2 °C89 %0.0 W/m²5.7 km/hSüd-SW12.2 km/hSüd-SO991.1 hPa0.0 mm0.0 mm/h
27.11.2021 - 05.35Uhr2.9 °C1.3 °C89 %0.0 W/m²5.9 km/hSüd-SO14.0 km/hSüd-SO991.0 hPa0.0 mm0.0 mm/h
27.11.2021 - 05.40Uhr3.0 °C1.4 °C89 %0.0 W/m²5.2 km/hSüd-SW14.0 km/hSüd-SW991.0 hPa0.0 mm0.0 mm/h
27.11.2021 - 05.45Uhr3.1 °C1.5 °C89 %0.0 W/m²4.4 km/hWest-SW12.2 km/hSüdwesten991.0 hPa0.0 mm0.0 mm/h
27.11.2021 - 05.50Uhr3.0 °C1.4 °C89 %0.0 W/m²4.4 km/hSüdwesten12.2 km/hSüdosten991.1 hPa0.0 mm0.0 mm/h
27.11.2021 - 05.55Uhr2.9 °C1.3 °C89 %0.0 W/m²5.7 km/hSüdwesten20.2 km/hSüden991.2 hPa0.0 mm0.0 mm/h
27.11.2021 - 06.00Uhr3.0 °C1.4 °C89 %0.0 W/m²6.6 km/hSüd-SW18.0 km/hSüd-SW991.2 hPa0.0 mm0.0 mm/h
27.11.2021 - 06.05Uhr3.2 °C1.6 °C89 %0.0 W/m²10.6 km/hSüd-SO18.0 km/hSüdosten991.1 hPa0.0 mm0.0 mm/h
27.11.2021 - 06.10Uhr3.3 °C1.7 °C89 %0.0 W/m²9.3 km/hSüden22.0 km/hSüdosten991.3 hPa0.0 mm0.0 mm/h
27.11.2021 - 06.15Uhr3.3 °C1.5 °C88 %0.0 W/m²7.8 km/hSüden18.0 km/hSüd-SO991.3 hPa0.0 mm0.0 mm/h
27.11.2021 - 06.20Uhr3.3 °C1.5 °C88 %0.0 W/m²10.2 km/hSüd-SO18.0 km/hSüdosten991.2 hPa0.0 mm0.0 mm/h
27.11.2021 - 06.25Uhr3.4 °C1.6 °C88 %0.0 W/m²8.9 km/hSüden18.0 km/hSüdosten991.1 hPa0.0 mm0.0 mm/h
27.11.2021 - 06.30Uhr3.5 °C1.8 °C88 %0.0 W/m²9.9 km/hSüd-SO18.0 km/hSüdosten991.0 hPa0.0 mm0.0 mm/h
27.11.2021 - 06.35Uhr3.6 °C1.8 °C88 %0.0 W/m²9.3 km/hSüd-SO16.2 km/hSüdosten990.9 hPa0.0 mm0.0 mm/h
27.11.2021 - 06.40Uhr3.6 °C1.8 °C88 %0.0 W/m²7.7 km/hSüden16.2 km/hSüd-SO991.0 hPa0.0 mm0.0 mm/h
27.11.2021 - 06.45Uhr3.6 °C1.8 °C88 %0.0 W/m²4.7 km/hSüd-SW10.1 km/hSüd-SW991.1 hPa0.0 mm0.0 mm/h
27.11.2021 - 06.50Uhr3.5 °C1.7 °C88 %0.0 W/m²2.5 km/hWest-SW8.3 km/hWest-SW991.1 hPa0.0 mm0.0 mm/h
27.11.2021 - 06.55Uhr3.5 °C1.7 °C88 %0.0 W/m²3.5 km/hSüden12.2 km/hSüden991.0 hPa0.0 mm0.0 mm/h
27.11.2021 - 07.00Uhr3.5 °C1.7 °C88 %0.0 W/m²2.9 km/hWest-SW12.2 km/hSüdwesten991.0 hPa0.0 mm0.0 mm/h
27.11.2021 - 07.05Uhr3.4 °C1.6 °C88 %0.0 W/m²2.1 km/hWest-SW5.8 km/hWest-SW991.1 hPa0.0 mm0.0 mm/h
27.11.2021 - 07.10Uhr3.3 °C1.6 °C89 %0.0 W/m²1.8 km/hWest-SW8.3 km/hSüdwesten991.1 hPa0.0 mm0.0 mm/h
27.11.2021 - 07.15Uhr3.2 °C1.6 °C89 %0.0 W/m²3.1 km/hSüdwesten8.3 km/hSüden991.0 hPa0.0 mm0.0 mm/h
27.11.2021 - 07.20Uhr3.4 °C1.8 °C89 %0.0 W/m²3.8 km/hSüden16.2 km/hWest-SW991.1 hPa0.0 mm0.0 mm/h
27.11.2021 - 07.25Uhr3.5 °C1.9 °C89 %0.0 W/m²5.5 km/hSüd-SO12.2 km/hSüd-SO991.2 hPa0.0 mm0.0 mm/h
27.11.2021 - 07.30Uhr3.6 °C2.0 °C89 %0.0 W/m²5.5 km/hSüden18.0 km/hSüd-SW991.2 hPa0.0 mm0.0 mm/h
27.11.2021 - 07.35Uhr3.6 °C1.8 °C88 %0.0 W/m²6.1 km/hSüdwesten16.2 km/hSüden991.3 hPa0.0 mm0.0 mm/h
27.11.2021 - 07.40Uhr3.6 °C1.9 °C89 %0.0 W/m²5.8 km/hSüd-SO18.0 km/hSüd-SO991.3 hPa0.0 mm0.0 mm/h
27.11.2021 - 07.45Uhr3.6 °C2.0 °C89 %0.0 W/m²6.1 km/hSüden16.2 km/hSüd-SO991.4 hPa0.0 mm0.0 mm/h
27.11.2021 - 07.50Uhr3.6 °C1.8 °C88 %0.0 W/m²5.1 km/hSüd-SO16.2 km/hSüd-SO991.4 hPa0.0 mm0.0 mm/h
27.11.2021 - 07.55Uhr3.7 °C1.9 °C88 %0.0 W/m²7.9 km/hSüdwesten22.0 km/hSüden991.4 hPa0.0 mm0.0 mm/h
27.11.2021 - 08.00Uhr3.8 °C2.0 °C88 %0.0 W/m²7.7 km/hSüd-SO18.0 km/hSüd-SO991.4 hPa0.0 mm0.0 mm/h
27.11.2021 - 08.05Uhr3.9 °C1.9 °C87 %0.0 W/m²8.8 km/hSüd-SO18.0 km/hSüdosten991.5 hPa0.0 mm0.0 mm/h
27.11.2021 - 08.10Uhr3.8 °C1.8 °C87 %5.0 W/m²6.7 km/hSüd-SW16.2 km/hSüd-SO991.5 hPa0.0 mm0.0 mm/h
27.11.2021 - 08.15Uhr3.7 °C1.9 °C88 %5.0 W/m²7.0 km/hSüdwesten18.0 km/hSüden991.6 hPa0.0 mm0.0 mm/h
27.11.2021 - 08.20Uhr3.7 °C1.9 °C88 %7.0 W/m²6.1 km/hSüd-SW14.0 km/hSüden991.7 hPa0.0 mm0.0 mm/h
27.11.2021 - 08.25Uhr3.7 °C1.9 °C88 %11.0 W/m²4.9 km/hSüdwesten12.2 km/hWest-SW991.7 hPa0.0 mm0.0 mm/h
27.11.2021 - 08.30Uhr3.6 °C1.9 °C88 %21.0 W/m²6.0 km/hSüden12.2 km/hSüd-SO991.9 hPa0.0 mm0.0 mm/h
27.11.2021 - 08.35Uhr3.6 °C1.8 °C88 %35.0 W/m²9.5 km/hSüden18.0 km/hSüd-SO992.0 hPa0.0 mm0.0 mm/h
27.11.2021 - 08.40Uhr3.6 °C1.8 °C88 %51.0 W/m²6.4 km/hSüdwesten18.0 km/hSüd-SO992.0 hPa0.0 mm0.0 mm/h
27.11.2021 - 08.45Uhr3.7 °C1.9 °C88 %72.0 W/m²6.4 km/hSüden16.2 km/hSüdosten992.0 hPa0.0 mm0.0 mm/h
27.11.2021 - 08.50Uhr3.8 °C2.0 °C88 %93.0 W/m²7.9 km/hSüdwesten18.0 km/hSüden992.0 hPa0.0 mm0.0 mm/h
27.11.2021 - 08.55Uhr4.0 °C2.2 °C88 %104.0 W/m²8.0 km/hSüden18.0 km/hSüdosten992.0 hPa0.0 mm0.0 mm/h
27.11.2021 - 09.00Uhr4.2 °C2.4 °C88 %109.0 W/m²9.2 km/hSüd-SW26.3 km/hSüdosten992.1 hPa0.0 mm0.0 mm/h
27.11.2021 - 09.05Uhr4.3 °C2.3 °C87 %111.0 W/m²6.3 km/hSüden18.0 km/hWest-SW992.1 hPa0.0 mm0.0 mm/h
27.11.2021 - 09.10Uhr4.3 °C2.3 °C87 %104.0 W/m²7.5 km/hSüd-SO18.0 km/hSüden992.0 hPa0.0 mm0.0 mm/h
27.11.2021 - 09.15Uhr4.3 °C2.3 °C87 %153.0 W/m²5.9 km/hSüd-SW16.2 km/hSüd-SO992.0 hPa0.0 mm0.0 mm/h
27.11.2021 - 09.20Uhr4.5 °C2.5 °C87 %234.0 W/m²6.2 km/hWest-SW12.2 km/hSüden992.0 hPa0.0 mm0.0 mm/h
27.11.2021 - 09.25Uhr4.7 °C2.6 °C86 %237.0 W/m²6.1 km/hWest-SW12.2 km/hSüdwesten992.1 hPa0.0 mm0.0 mm/h
27.11.2021 - 09.30Uhr4.9 °C3.0 °C87 %244.0 W/m²5.9 km/hSüdwesten16.2 km/hSüden992.1 hPa0.0 mm0.0 mm/h
27.11.2021 - 09.35Uhr5.2 °C2.9 °C85 %250.0 W/m²5.7 km/hSüd-SW8.3 km/hSüd-SO992.0 hPa0.0 mm0.0 mm/h